Time;durP1;ratioP1;P1;durP2;ratioP2;P2;SDS_P1;SDS_P2;PMS_P1;PMS_P2;Temp;Humidity;BMP_temperature;BMP_pressure;BME280_temperature;BME280_humidity;BME280_pressure;Samples;Min_cycle;Max_cycle;Signal;HPM_P1;HPM_P2
2022/10/05 00:02:17;;;;;;;10.77;7.03;;;;;;;12.47;69.57;99652.13;5194968;28;20053;-73
2022/10/05 00:05:20;;;;;;;9.20;6.45;;;;;;;12.58;69.26;99659.97;5199231;28;20135;-73
2022/10/05 00:08:18;;;;;;;12.05;7.22;;;;;;;12.44;70.04;99655.06;5200923;28;20056;-73
2022/10/05 00:11:12;;;;;;;14.98;6.68;;;;;;;12.28;69.86;99652.94;5202400;28;20103;-73
2022/10/05 00:14:16;;;;;;;10.90;6.68;;;;;;;11.98;69.62;99653.88;5205536;28;20041;-73
2022/10/05 00:17:14;;;;;;;13.07;6.97;;;;;;;11.80;68.31;99645.69;5201618;28;20151;-73
2022/10/05 00:20:23;;;;;;;10.80;6.47;;;;;;;11.47;69.17;99626.44;5203454;28;20292;-73
2022/10/05 00:23:26;;;;;;;11.43;6.15;;;;;;;11.63;68.99;99644.53;5202113;28;20049;-73
2022/10/05 00:26:24;;;;;;;10.10;6.05;;;;;;;11.80;69.59;99635.06;5205913;28;20049;-73
2022/10/05 00:29:22;;;;;;;13.55;7.40;;;;;;;11.93;70.83;99635.69;5202941;28;20076;-73
2022/10/05 00:32:13;;;;;;;14.90;7.13;;;;;;;11.87;70.55;99619.47;5201673;28;20730;-73
2022/10/05 00:35:04;;;;;;;11.40;6.88;;;;;;;11.56;69.62;99621.31;5190859;28;20045;-73
2022/10/05 00:37:55;;;;;;;13.60;7.18;;;;;;;11.46;69.69;99635.38;5202787;28;20063;-73
2022/10/05 00:41:10;;;;;;;9.48;6.40;;;;;;;11.40;69.16;99635.06;5192917;28;20064;-73
2022/10/05 00:44:04;;;;;;;16.75;6.00;;;;;;;11.21;69.41;99639.31;5188608;28;20049;-73
2022/10/05 00:46:57;;;;;;;8.73;5.80;;;;;;;10.97;71.37;99638.78;5206418;28;20057;-73
2022/10/05 00:50:05;;;;;;;12.15;6.05;;;;;;;11.10;69.91;99633.25;5203284;28;20471;-73
2022/10/05 00:53:08;;;;;;;10.18;6.57;;;;;;;10.91;70.25;99631.31;5205288;28;20488;-73
2022/10/05 00:56:20;;;;;;;13.00;6.43;;;;;;;10.91;70.34;99639.28;5202224;28;20092;-73
2022/10/05 00:59:35;;;;;;;11.30;6.78;;;;;;;10.71;70.88;99615.28;5206705;28;20068;-73
2022/10/05 01:02:25;;;;;;;;;;;;;;;10.75;71.22;99639.72;5202053;28;20100;-73
2022/10/05 01:05:31;;;;;;;14.98;6.18;;;;;;;10.88;70.31;99643.03;5202778;28;20034;-73
2022/10/05 01:09:06;;;;;;;10.82;6.07;;;;;;;10.67;70.92;99637.72;5189671;28;20151;-73
2022/10/05 01:12:23;;;;;;;9.50;5.37;;;;;;;10.57;70.79;99636.81;5173025;28;20076;-73
2022/10/05 01:15:34;;;;;;;13.20;6.05;;;;;;;10.47;69.84;99628.78;5170798;28;20843;-73
2022/10/05 01:18:56;;;;;;;9.02;5.57;;;;;;;10.60;70.28;99646.34;5201611;28;20049;-73
2022/10/05 01:22:18;;;;;;;9.43;6.30;;;;;;;10.51;70.65;99642.63;5180278;28;20140;-73
2022/10/05 01:25:12;;;;;;;11.60;6.35;;;;;;;10.46;70.90;99640.38;5201343;28;20049;-73
2022/10/05 01:28:10;;;;;;;8.48;5.65;;;;;;;10.35;70.20;99643.06;5188097;28;20123;-73
2022/10/05 01:31:33;;;;;;;15.32;6.13;;;;;;;10.30;70.24;99639.97;5199833;28;20064;-73
2022/10/05 01:34:52;;;;;;;10.93;5.47;;;;;;;10.20;70.54;99634.53;5142224;28;20428;-73
2022/10/05 01:38:20;;;;;;;8.43;5.50;;;;;;;10.23;69.64;99639.59;5202404;28;20420;-73
2022/10/05 01:41:22;;;;;;;18.92;6.50;;;;;;;10.30;70.86;99627.53;5200823;28;20059;-73
2022/10/05 01:44:17;;;;;;;13.63;5.82;;;;;;;10.09;70.66;99613.34;5189683;28;20056;-73
2022/10/05 01:47:24;;;;;;;8.50;5.85;;;;;;;10.06;70.61;99629.50;5200751;28;20088;-73
2022/10/05 01:50:39;;;;;;;10.68;5.97;;;;;;;9.99;69.50;99618.56;5185861;28;20423;-73
2022/10/05 01:53:34;;;;;;;9.63;6.22;;;;;;;10.04;70.18;99620.84;5195311;28;20088;-73
2022/10/05 01:56:57;;;;;;;13.27;6.22;;;;;;;10.06;70.95;99610.94;5200388;28;20060;-72
2022/10/05 01:59:53;;;;;;;11.80;6.20;;;;;;;10.15;71.21;99617.31;5187441;28;20161;-73
2022/10/05 02:02:51;;;;;;;9.18;5.43;;;;;;;10.00;71.03;99614.97;5190296;28;20060;-73
2022/10/05 02:05:56;;;;;;;15.10;6.78;;;;;;;10.01;71.76;99621.94;5188786;28;20069;-73
2022/10/05 02:08:57;;;;;;;12.88;6.43;;;;;;;9.96;71.57;99610.03;5181105;28;20060;-73
2022/10/05 02:11:56;;;;;;;9.70;6.10;;;;;;;10.05;71.19;99606.63;5200172;28;20103;-73
2022/10/05 02:14:50;;;;;;;13.23;7.18;;;;;;;10.04;70.78;99597.84;5187800;28;20247;-73
2022/10/05 02:17:49;;;;;;;12.40;6.32;;;;;;;10.08;72.13;99593.97;5187468;28;20103;-73
2022/10/05 02:20:42;;;;;;;13.90;6.68;;;;;;;10.15;72.08;99601.41;5185081;28;20057;-72
2022/10/05 02:23:37;;;;;;;10.35;6.35;;;;;;;9.97;70.76;99601.13;5201200;28;20064;-73
2022/10/05 02:26:30;;;;;;;13.07;6.30;;;;;;;9.94;71.30;99599.56;5187848;28;20459;-73
2022/10/05 02:29:25;;;;;;;8.82;5.90;;;;;;;9.93;71.01;99597.03;5199031;28;20076;-73
2022/10/05 02:32:23;;;;;;;11.80;5.82;;;;;;;9.90;70.71;99592.84;5201054;28;20064;-73
2022/10/05 02:35:17;;;;;;;12.35;6.30;;;;;;;9.82;71.18;99600.56;5185678;28;20084;-73
2022/10/05 02:38:54;;;;;;;9.45;6.15;;;;;;;9.76;70.55;99593.94;5190610;28;20053;-73
2022/10/05 02:41:57;;;;;;;12.90;5.75;;;;;;;9.73;71.17;99599.47;5179803;28;20045;-73
2022/10/05 02:45:14;;;;;;;10.02;5.80;;;;;;;9.64;70.42;99595.78;5185366;28;20611;-73
2022/10/05 02:48:18;;;;;;;8.60;5.55;;;;;;;9.65;70.94;99623.94;5194967;28;20531;-73
2022/10/05 02:51:32;;;;;;;9.95;6.00;;;;;;;9.58;70.78;99620.09;5185819;28;20049;-73
2022/10/05 02:54:59;;;;;;;9.15;6.13;;;;;;;9.55;70.59;99628.28;5186012;28;20071;-73
2022/10/05 02:57:58;;;;;;;9.05;5.88;;;;;;;9.46;70.03;99636.09;5183909;28;20132;-73
2022/10/05 03:01:02;;;;;;;11.32;5.75;;;;;;;9.39;71.07;99619.88;5186478;28;20064;-73
2022/10/05 03:04:23;;;;;;;15.00;5.93;;;;;;;9.58;70.34;99613.97;5188884;28;20578;-73
2022/10/05 03:07:20;;;;;;;13.00;6.00;;;;;;;9.30;71.63;99608.19;5187922;28;20049;-73
2022/10/05 03:10:36;;;;;;;11.05;6.18;;;;;;;9.34;70.38;99604.38;5184424;28;20403;-73
2022/10/05 03:13:58;;;;;;;9.85;5.22;;;;;;;9.12;70.03;99591.13;5186834;28;20045;-73
2022/10/05 03:17:19;;;;;;;10.93;5.50;;;;;;;9.18;69.95;99610.00;5179713;28;20064;-73
2022/10/05 03:20:24;;;;;;;10.50;5.63;;;;;;;9.22;71.09;99610.59;5188948;28;20048;-73
2022/10/05 03:23:24;;;;;;;8.10;5.80;;;;;;;9.11;71.75;99568.28;5200814;28;20114;-72
2022/10/05 03:26:19;;;;;;;13.93;5.43;;;;;;;9.30;71.04;99581.72;5185351;28;20068;-73
2022/10/05 03:29:29;;;;;;;11.88;6.35;;;;;;;9.33;70.77;99580.66;5187231;28;20061;-73
2022/10/05 03:32:20;;;;;;;10.02;5.97;;;;;;;9.18;71.26;99583.56;5183760;28;20115;-73
2022/10/05 03:35:22;;;;;;;9.85;6.13;;;;;;;9.20;71.29;99572.84;5197857;28;20056;-72
2022/10/05 03:38:18;;;;;;;10.73;6.57;;;;;;;9.20;71.93;99578.13;5184002;28;20057;-73
2022/10/05 03:41:30;;;;;;;12.95;6.30;;;;;;;9.24;71.45;99581.38;5205043;28;20053;-73
2022/10/05 03:44:34;;;;;;;12.10;6.90;;;;;;;9.13;72.88;99559.25;5188476;28;20072;-73
2022/10/05 03:47:38;;;;;;;17.00;6.45;;;;;;;9.18;72.35;99556.25;5175602;28;20057;-73
2022/10/05 03:50:32;;;;;;;9.80;5.97;;;;;;;9.18;71.98;99543.03;5189596;28;20111;-73
2022/10/05 03:53:32;;;;;;;17.33;7.35;;;;;;;9.23;71.28;99551.44;5190669;28;20056;-73
2022/10/05 03:56:33;;;;;;;18.13;6.57;;;;;;;9.16;71.92;99559.00;5188857;28;20072;-73
2022/10/05 03:59:36;;;;;;;13.70;6.68;;;;;;;9.18;71.52;99556.25;5189755;28;20041;-73
2022/10/05 04:02:38;;;;;;;11.80;6.93;;;;;;;9.22;71.55;99567.44;5191132;28;20415;-72
2022/10/05 04:05:43;;;;;;;11.70;6.57;;;;;;;9.03;72.58;99557.44;5206185;28;20175;-73
2022/10/05 04:08:43;;;;;;;12.10;6.63;;;;;;;9.14;72.28;99568.88;5186495;28;20056;-72
2022/10/05 04:11:57;;;;;;;;;;;;;;;9.10;71.09;99563.94;5189791;28;20056;-73
2022/10/05 04:14:52;;;;;;;12.27;6.55;;;;;;;9.03;71.18;99568.03;5188686;28;19928;-73
2022/10/05 04:17:47;;;;;;;12.23;6.65;;;;;;;8.99;71.67;99564.78;5203904;28;20052;-73
2022/10/05 04:20:45;;;;;;;12.50;6.80;;;;;;;9.05;70.89;99566.13;5187104;28;20075;-72
2022/10/05 04:23:57;;;;;;;13.98;6.63;;;;;;;9.01;71.03;99562.03;5190164;28;20057;-72
2022/10/05 04:26:56;;;;;;;15.98;6.40;;;;;;;8.86;70.88;99556.97;5195063;22;20108;-68
2022/10/05 04:30:01;;;;;;;9.13;5.97;;;;;;;9.00;71.54;99557.69;5175540;28;20062;-67
2022/10/05 04:32:58;;;;;;;11.02;6.70;;;;;;;8.82;71.64;99546.75;5158532;28;20109;-70
2022/10/05 04:36:01;;;;;;;12.43;5.95;;;;;;;8.93;71.47;99562.63;5175207;28;20185;-70
2022/10/05 04:39:14;;;;;;;12.27;5.75;;;;;;;8.92;71.68;99559.13;5142254;28;20368;-68
2022/10/05 04:42:27;;;;;;;16.27;6.53;;;;;;;8.60;72.34;99553.69;5142513;28;20588;-69
2022/10/05 04:45:27;;;;;;;17.40;7.53;;;;;;;8.66;71.38;99566.44;5145143;28;20056;-68
2022/10/05 04:48:53;;;;;;;14.00;6.65;;;;;;;8.57;71.48;99556.56;5146747;28;20046;-68
2022/10/05 04:52:14;;;;;;;15.30;7.85;;;;;;;8.70;71.35;99578.44;5157310;28;20050;-69
2022/10/05 04:55:37;;;;;;;15.57;7.50;;;;;;;8.57;71.07;99569.78;5145607;28;20057;-68
2022/10/05 04:58:46;;;;;;;21.73;8.98;;;;;;;8.79;71.23;99584.00;5111079;28;20503;-69
2022/10/05 05:02:00;;;;;;;26.50;11.10;;;;;;;8.85;71.62;99581.72;5142642;28;20046;-68
2022/10/05 05:04:57;;;;;;;31.75;13.30;;;;;;;8.67;71.37;99577.84;5140099;28;20562;-69
2022/10/05 05:07:57;;;;;;;25.13;11.93;;;;;;;8.59;71.23;99589.00;5145985;28;20468;-70
2022/10/05 05:10:56;;;;;;;21.73;11.85;;;;;;;8.57;72.12;99595.38;5155116;28;20062;-67
2022/10/05 05:14:18;;;;;;;23.02;11.27;;;;;;;8.55;71.49;99579.63;5153919;28;20120;-70
2022/10/05 05:17:39;;;;;;;25.05;10.13;;;;;;;8.62;70.90;99598.50;5149934;28;20253;-68
2022/10/05 05:21:00;;;;;;;16.83;8.77;;;;;;;8.55;72.11;99594.66;5142666;28;20053;-68
2022/10/05 05:24:09;;;;;;;17.77;9.75;;;;;;;8.42;71.98;99558.56;5150140;28;20061;-71
2022/10/05 05:27:25;;;;;;;19.85;8.48;;;;;;;8.61;71.63;99583.59;5139382;28;20077;-68
2022/10/05 05:30:20;;;;;;;19.20;8.07;;;;;;;8.49;72.35;99606.53;5148161;28;20161;-68
2022/10/05 05:33:34;;;;;;;13.85;7.55;;;;;;;8.45;71.70;99611.19;5136008;28;20053;-68
2022/10/05 05:36:46;;;;;;;14.90;7.00;;;;;;;8.45;71.08;99623.56;5155737;28;20050;-67
2022/10/05 05:40:10;;;;;;;16.20;7.15;;;;;;;8.47;70.91;99630.41;5148446;28;20058;-70
2022/10/05 05:43:45;;;;;;;14.40;6.90;;;;;;;8.39;71.10;99632.78;5142623;28;20050;-67
2022/10/05 05:46:39;;;;;;;22.30;7.75;;;;;;;8.53;72.03;99638.84;5065019;29;20683;-67
2022/10/05 05:49:53;;;;;;;12.00;7.32;;;;;;;8.56;71.59;99633.34;5055639;29;20079;-69
2022/10/05 05:52:50;;;;;;;16.70;7.78;;;;;;;8.67;71.06;99636.00;5147524;28;20112;-69
2022/10/05 05:55:46;;;;;;;13.40;7.35;;;;;;;8.60;71.56;99625.03;5147458;28;20042;-66
2022/10/05 05:58:47;;;;;;;12.18;7.38;;;;;;;8.65;72.30;99637.94;5161424;28;20180;-66
2022/10/05 06:01:44;;;;;;;17.80;7.57;;;;;;;8.71;72.10;99634.84;5160284;28;20109;-68
2022/10/05 06:05:08;;;;;;;13.07;7.30;;;;;;;8.88;72.37;99639.69;5136661;28;20057;-68
2022/10/05 06:08:05;;;;;;;14.10;7.75;;;;;;;8.85;72.99;99633.78;5129102;28;20094;-68
2022/10/05 06:11:00;;;;;;;12.48;7.63;;;;;;;8.93;72.78;99639.31;5157962;28;20076;-67
2022/10/05 06:13:53;;;;;;;16.60;8.98;;;;;;;9.31;73.01;99636.34;5149326;28;20544;-67
2022/10/05 06:16:56;;;;;;;19.35;8.85;;;;;;;9.27;72.69;99634.91;5157656;28;20056;-69
2022/10/05 06:19:48;;;;;;;15.20;8.52;;;;;;;9.12;74.39;99641.38;5149864;28;20054;-67
2022/10/05 06:22:43;;;;;;;20.65;9.27;;;;;;;9.13;74.01;99656.28;5143810;28;20076;-69
2022/10/05 06:25:48;;;;;;;17.27;8.73;;;;;;;9.35;73.71;99660.78;5132457;28;20101;-69
2022/10/05 06:28:38;;;;;;;16.45;8.73;;;;;;;9.50;72.79;99659.56;5133392;28;20053;-68
2022/10/05 06:32:08;;;;;;;17.98;8.90;;;;;;;9.52;72.41;99654.16;5122414;28;20050;-66
2022/10/05 06:35:36;;;;;;;17.63;8.27;;;;;;;9.63;72.81;99660.31;5105398;28;20133;-70
2022/10/05 06:38:57;;;;;;;19.50;8.68;;;;;;;9.80;73.00;99666.03;5119510;28;20185;-67
2022/10/05 06:41:56;;;;;;;21.85;8.10;;;;;;;9.83;72.36;99665.78;5135100;28;20631;-68
2022/10/05 06:45:25;;;;;;;21.92;9.73;;;;;;;10.03;73.20;99680.97;5129410;28;20096;-67
2022/10/05 06:48:29;;;;;;;21.88;9.35;;;;;;;10.22;72.74;99685.59;5129576;28;20049;-67
2022/10/05 06:51:49;;;;;;;23.10;10.00;;;;;;;10.45;72.35;99680.25;5123745;28;20077;-70
2022/10/05 06:55:00;;;;;;;23.08;10.48;;;;;;;10.49;71.42;99681.69;5122432;28;20509;-69
2022/10/05 06:58:32;;;;;;;23.52;10.10;;;;;;;10.77;71.92;99685.56;5116837;28;20300;-69
2022/10/05 07:01:22;;;;;;;30.52;9.65;;;;;;;10.92;71.69;99680.75;5125933;28;20605;-71
2022/10/05 07:04:34;;;;;;;18.77;9.25;;;;;;;11.40;70.68;99681.06;5122732;28;20544;-72
2022/10/05 07:08:00;;;;;;;26.08;9.50;;;;;;;11.93;69.80;99678.22;5122802;28;20057;-70
2022/10/05 07:11:03;;;;;;;21.73;8.70;;;;;;;12.50;69.50;99682.94;5117606;28;20238;-69
2022/10/05 07:14:09;;;;;;;;;;;;;;;12.71;68.91;99683.59;5122392;28;20058;-69
2022/10/05 07:17:09;;;;;;;19.40;8.20;;;;;;;13.91;66.25;99693.69;5122083;28;19933;-68
2022/10/05 07:20:30;;;;;;;12.15;7.43;;;;;;;14.91;63.03;99685.59;5120605;28;20077;-69
2022/10/05 07:23:25;;;;;;;13.32;7.60;;;;;;;15.32;61.49;99688.53;5124753;28;20049;-69
2022/10/05 07:26:35;;;;;;;12.90;7.15;;;;;;;15.23;61.28;99686.81;5121608;28;20064;-71
2022/10/05 07:29:36;;;;;;;8.65;6.60;;;;;;;15.50;60.12;99691.19;5134658;28;20497;-68
2022/10/05 07:32:51;;;;;;;11.23;6.43;;;;;;;15.88;60.68;99678.34;5134337;28;20132;-69
2022/10/05 07:39:26;;;;;;;7.10;5.28;;;;;;;16.54;57.18;99684.72;5118515;28;20058;-69
2022/10/05 07:43:04;;;;;;;13.25;5.88;;;;;;;16.70;56.26;99662.47;5133110;28;20442;-73
2022/10/05 07:45:58;;;;;;;6.70;5.30;;;;;;;16.73;57.77;99689.75;5121014;28;20173;-71
2022/10/05 07:49:20;;;;;;;7.78;5.57;;;;;;;16.72;56.65;99687.22;5104010;28;20061;-71
2022/10/05 07:52:16;;;;;;;7.75;5.75;;;;;;;17.43;55.51;99688.41;5136739;28;20092;-72
2022/10/05 07:55:09;;;;;;;10.52;6.10;;;;;;;17.90;55.08;99690.28;5115817;28;20050;-71
2022/10/05 07:58:19;;;;;;;7.77;5.20;;;;;;;18.20;53.97;99697.53;5109342;28;20124;-72
2022/10/05 08:01:20;;;;;;;10.75;5.28;;;;;;;18.35;53.65;99691.41;5119375;28;20152;-69
2022/10/05 08:04:29;;;;;;;8.63;5.38;;;;;;;18.54;54.27;99690.94;5119877;28;20054;-71
2022/10/05 08:07:20;;;;;;;;;;;;;;;18.98;53.45;99695.69;5139952;28;20076;-70
2022/10/05 08:10:39;;;;;;;12.45;4.72;;;;;;;19.67;52.21;99692.88;5135280;28;19930;-70
2022/10/05 08:13:51;;;;;;;13.15;5.00;;;;;;;19.35;52.71;99683.25;5133263;28;20069;-69
2022/10/05 08:16:45;;;;;;;7.25;5.38;;;;;;;19.87;51.55;99668.91;5134885;28;20058;-71
2022/10/05 08:19:46;;;;;;;8.93;4.60;;;;;;;20.09;50.52;99691.31;5132812;28;20316;-69
2022/10/05 08:22:45;;;;;;;8.90;4.97;;;;;;;20.15;50.98;99682.50;5134911;28;20532;-69
2022/10/05 08:26:04;;;;;;;8.13;5.70;;;;;;;20.01;50.78;99678.00;5134805;28;20061;-69
2022/10/05 08:29:16;;;;;;;9.55;5.35;;;;;;;20.86;50.53;99674.56;5134831;28;20057;-69
2022/10/05 08:32:24;;;;;;;10.05;5.72;;;;;;;20.88;47.89;99680.59;5132130;28;20061;-69
2022/10/05 08:35:27;;;;;;;7.25;4.90;;;;;;;21.37;46.95;99644.72;5122632;28;20081;-70
2022/10/05 08:38:23;;;;;;;6.35;4.72;;;;;;;21.84;48.82;99663.84;5128439;28;20523;-71
2022/10/05 08:41:43;;;;;;;6.38;4.63;;;;;;;20.84;48.33;99663.16;5111772;28;20069;-72
2022/10/05 08:45:19;;;;;;;7.60;4.88;;;;;;;20.86;48.70;99670.03;5134887;28;20069;-69
2022/10/05 08:48:18;;;;;;;10.20;5.10;;;;;;;21.58;50.59;99666.19;5137640;28;20053;-69
2022/10/05 08:51:31;;;;;;;7.57;5.05;;;;;;;21.24;48.46;99656.22;5137913;28;20478;-70
2022/10/05 08:54:36;;;;;;;8.23;5.60;;;;;;;22.08;46.75;99665.19;5132576;28;20177;-70
2022/10/05 08:58:18;;;;;;;6.32;5.00;;;;;;;22.72;46.81;99667.47;5131695;28;20481;-68
2022/10/05 09:01:24;;;;;;;6.85;5.25;;;;;;;22.72;47.91;99660.19;5039764;29;20788;-70
2022/10/05 09:04:36;;;;;;;9.25;4.93;;;;;;;22.09;47.12;99653.38;5133993;28;20082;-69
2022/10/05 09:08:03;;;;;;;11.63;5.03;;;;;;;22.68;46.38;99655.41;5132548;28;20058;-72
2022/10/05 09:11:31;;;;;;;7.95;5.13;;;;;;;23.01;46.35;99651.91;5137174;28;20133;-71
2022/10/05 09:14:49;;;;;;;7.10;4.75;;;;;;;23.05;46.44;99656.72;5136468;28;20074;-70
2022/10/05 09:18:11;;;;;;;7.55;4.90;;;;;;;22.87;45.70;99646.47;5143140;28;20092;-75
2022/10/05 09:21:13;;;;;;;4.97;4.10;;;;;;;22.85;46.11;99643.16;5152185;28;20050;-69
2022/10/05 09:24:09;;;;;;;7.22;5.07;;;;;;;22.95;44.53;99640.91;5144246;28;20144;-74
2022/10/05 09:27:08;;;;;;;8.57;4.85;;;;;;;23.41;45.40;99642.72;5150567;28;20049;-70
2022/10/05 09:30:13;;;;;;;7.13;4.78;;;;;;;23.40;44.03;99638.34;5124364;28;20054;-71
2022/10/05 09:33:25;;;;;;;7.38;4.25;;;;;;;23.28;45.65;99636.47;5139518;28;21964;-69
2022/10/05 09:36:53;;;;;;;13.07;4.97;;;;;;;23.82;43.76;99635.34;5136937;28;20046;-72
2022/10/05 09:40:18;;;;;;;5.72;4.00;;;;;;;23.70;43.39;99627.03;5136361;28;20563;-72
2022/10/05 09:43:39;;;;;;;7.72;4.20;;;;;;;23.44;46.03;99628.78;5145911;28;20127;-71
2022/10/05 09:46:33;;;;;;;11.50;4.38;;;;;;;24.36;45.32;99618.59;5140535;28;20245;-71
2022/10/05 09:49:45;;;;;;;6.63;3.90;;;;;;;24.51;44.00;99617.50;5144152;28;20124;-71
2022/10/05 09:53:00;;;;;;;10.35;4.45;;;;;;;24.85;44.27;99625.13;5130849;28;20165;-72
2022/10/05 09:56:08;;;;;;;;;;;;;;;24.28;44.22;99607.19;5146063;28;20050;-71
2022/10/05 09:59:20;;;;;;;6.35;3.72;;;;;;;25.12;43.53;99614.09;5138427;28;19979;-75
2022/10/05 10:02:26;;;;;;;6.10;3.65;;;;;;;24.42;43.22;99611.50;5141726;28;20602;-71
2022/10/05 10:05:45;;;;;;;6.15;3.78;;;;;;;24.71;44.37;99607.31;5125544;28;20061;-71
2022/10/05 10:08:39;;;;;;;7.72;3.38;;;;;;;24.88;45.03;99601.34;5126278;28;20081;-70
2022/10/05 10:11:37;;;;;;;7.75;3.60;;;;;;;25.17;43.02;99600.69;5143047;28;20062;-72
2022/10/05 10:14:48;;;;;;;4.47;3.38;;;;;;;25.30;43.07;99591.59;5140938;28;20428;-69
2022/10/05 10:18:00;;;;;;;3.78;3.33;;;;;;;25.10;43.81;99586.31;5144774;28;20078;-74
2022/10/05 10:21:06;;;;;;;4.75;3.13;;;;;;;25.20;43.69;99585.81;5146936;28;20058;-74
2022/10/05 10:24:08;;;;;;;4.28;3.13;;;;;;;25.26;44.20;99555.88;5141160;28;20507;-75
2022/10/05 10:27:17;;;;;;;5.75;3.50;;;;;;;24.49;43.46;99578.91;5138374;28;20054;-71
2022/10/05 10:30:26;;;;;;;10.38;3.50;;;;;;;24.69;43.49;99570.63;5144169;28;20421;-71
2022/10/05 10:33:55;;;;;;;4.35;3.22;;;;;;;24.70;42.91;99573.13;5141040;28;20145;-73
2022/10/05 10:37:11;;;;;;;3.95;3.10;;;;;;;24.02;45.89;99562.13;5131803;28;20062;-69
2022/10/05 10:40:35;;;;;;;5.28;2.70;;;;;;;24.21;45.01;99568.47;5140838;28;20144;-70
2022/10/05 10:43:45;;;;;;;7.70;3.20;;;;;;;23.82;47.19;99560.34;5145309;28;20054;-71
2022/10/05 10:46:52;;;;;;;5.95;2.95;;;;;;;23.46;46.91;99566.28;5140528;28;20082;-67
2022/10/05 10:50:13;;;;;;;7.50;3.53;;;;;;;23.23;46.76;99560.53;5123262;28;20084;-69
2022/10/05 10:53:21;;;;;;;3.65;2.65;;;;;;;23.58;47.59;99544.81;5142041;28;20141;-71
2022/10/05 10:56:49;;;;;;;9.57;2.92;;;;;;;23.03;47.50;99552.47;5125744;28;20050;-72
2022/10/05 11:00:18;;;;;;;6.68;3.50;;;;;;;23.06;48.12;99547.47;5122153;28;20058;-71
2022/10/05 11:03:26;;;;;;;4.78;2.65;;;;;;;23.01;48.52;99539.16;5130890;28;21572;-67
2022/10/05 11:06:41;;;;;;;3.88;2.92;;;;;;;22.81;48.76;99535.63;5133984;28;20061;-70
2022/10/05 11:10:04;;;;;;;12.73;2.83;;;;;;;23.31;48.33;99527.81;5126899;28;20128;-70
2022/10/05 11:13:39;;;;;;;5.05;2.90;;;;;;;23.35;48.43;99520.97;5137395;28;20169;-70
2022/10/05 11:17:17;;;;;;;3.58;2.85;;;;;;;23.55;47.42;99521.72;5140264;28;20050;-70
2022/10/05 11:20:45;;;;;;;4.07;2.85;;;;;;;23.67;48.23;99513.72;5131884;28;20049;-70
2022/10/05 11:24:06;;;;;;;4.35;2.67;;;;;;;23.47;47.61;99513.00;5109930;28;20682;-68
2022/10/05 11:27:10;;;;;;;4.38;2.60;;;;;;;23.66;46.51;99507.47;5141113;28;20039;-74
2022/10/05 11:30:09;;;;;;;5.22;2.47;;;;;;;24.04;47.15;99503.13;5160134;28;20184;-72
2022/10/05 11:33:20;;;;;;;5.47;2.45;;;;;;;24.08;45.99;99498.94;5144730;28;20531;-71
2022/10/05 11:36:38;;;;;;;3.25;2.40;;;;;;;24.06;46.99;99493.72;5144018;28;20050;-70
2022/10/05 11:39:35;;;;;;;4.82;2.60;;;;;;;24.02;47.92;99500.63;5144682;28;20058;-69
2022/10/05 11:42:31;;;;;;;4.15;2.75;;;;;;;24.26;45.96;99490.88;5139437;28;21087;-71
2022/10/05 11:45:25;;;;;;;2.78;2.03;;;;;;;24.01;46.96;99490.88;5138061;28;20085;-67
2022/10/05 11:48:24;;;;;;;17.95;2.67;;;;;;;24.30;46.71;99491.25;5147609;28;20058;-68
2022/10/05 11:51:29;;;;;;;3.67;2.30;;;;;;;24.23;46.42;99490.47;5128099;28;20065;-72
2022/10/05 11:54:32;;;;;;;2.45;2.08;;;;;;;24.32;47.01;99487.28;5148832;28;20104;-69
2022/10/05 11:57:48;;;;;;;4.43;2.30;;;;;;;24.25;46.95;99475.66;5147230;28;20062;-67
2022/10/05 12:00:43;;;;;;;2.60;2.28;;;;;;;24.18;46.68;99483.03;5130482;28;20054;-69
2022/10/05 12:04:13;;;;;;;5.20;2.63;;;;;;;24.23;46.68;99480.47;5142185;28;21084;-68
2022/10/05 12:07:55;;;;;;;3.97;2.08;;;;;;;24.29;46.39;99474.16;5139765;28;20621;-68
2022/10/05 12:10:45;;;;;;;6.07;2.33;;;;;;;24.28;47.03;99472.53;5105137;28;20069;-72
2022/10/05 12:13:41;;;;;;;3.58;2.15;;;;;;;24.33;47.62;99469.97;5142102;28;20432;-71
2022/10/05 12:16:43;;;;;;;5.68;2.30;;;;;;;24.28;46.62;99471.69;5147312;28;20061;-70
2022/10/05 12:20:10;;;;;;;4.85;2.78;;;;;;;24.37;45.86;99465.78;5131850;28;20712;-70
2022/10/05 12:23:19;;;;;;;2.70;2.35;;;;;;;24.43;46.14;99460.53;5136985;28;20091;-72
2022/10/05 12:26:15;;;;;;;7.43;2.20;;;;;;;24.05;46.97;99464.16;5135799;28;20054;-69
2022/10/05 12:29:14;;;;;;;5.00;1.95;;;;;;;24.18;47.80;99461.34;5142727;28;21097;-70
2022/10/05 12:32:16;;;;;;;2.33;1.55;;;;;;;24.22;47.86;99457.16;5132488;28;20830;-70
2022/10/05 12:35:13;;;;;;;3.92;2.13;;;;;;;24.23;46.11;99447.94;5147575;28;20844;-70
2022/10/05 12:38:25;;;;;;;3.10;1.65;;;;;;;24.32;47.09;99448.50;5130218;28;20748;-69
2022/10/05 12:41:24;;;;;;;4.68;2.22;;;;;;;24.36;47.97;99444.31;5144075;28;20096;-70
2022/10/05 12:44:37;;;;;;;9.27;2.22;;;;;;;24.30;48.59;99439.75;5148348;28;20085;-69
2022/10/05 12:47:42;;;;;;;4.38;2.10;;;;;;;24.26;47.63;99442.09;5143953;28;20167;-69
2022/10/05 12:50:49;;;;;;;1.92;1.60;;;;;;;24.08;47.64;99442.06;5148074;28;20614;-69
2022/10/05 12:54:19;;;;;;;6.00;2.22;;;;;;;23.63;48.78;99436.72;5121360;28;20054;-68
2022/10/05 12:57:26;;;;;;;4.65;2.05;;;;;;;23.87;48.20;99433.25;5135071;28;20135;-69
2022/10/05 13:00:18;;;;;;;4.80;1.95;;;;;;;23.89;49.63;99397.81;5140108;28;20803;-72
2022/10/05 13:03:23;;;;;;;3.58;2.00;;;;;;;24.23;49.30;99425.44;5128751;28;20061;-69
2022/10/05 13:06:32;;;;;;;4.10;2.08;;;;;;;24.15;48.22;99427.41;5143955;28;20429;-69
2022/10/05 13:09:32;;;;;;;4.85;2.55;;;;;;;23.67;48.49;99421.69;5146696;28;20056;-69
2022/10/05 13:12:41;;;;;;;5.45;1.95;;;;;;;23.83;48.91;99421.19;5140543;28;20448;-69
2022/10/05 13:15:45;;;;;;;2.63;1.77;;;;;;;23.97;49.28;99419.19;5141584;28;20727;-71
2022/10/05 13:19:01;;;;;;;2.78;1.95;;;;;;;24.06;49.85;99419.75;5143297;28;20057;-68
2022/10/05 13:22:18;;;;;;;4.65;1.98;;;;;;;24.09;48.90;99414.72;5136301;28;20137;-70
2022/10/05 13:25:12;;;;;;;3.38;2.00;;;;;;;24.16;49.07;99414.66;5134388;28;20102;-70
2022/10/05 13:28:25;;;;;;;4.23;2.00;;;;;;;23.98;49.27;99412.75;5116994;28;20070;-69
2022/10/05 13:31:48;;;;;;;7.93;2.15;;;;;;;24.11;47.15;99417.25;5119152;28;20065;-70
2022/10/05 13:34:48;;;;;;;4.55;1.80;;;;;;;23.98;48.27;99412.75;5136167;28;20057;-68
2022/10/05 13:38:15;;;;;;;5.22;1.98;;;;;;;24.06;48.21;99409.75;5138981;28;20042;-70
2022/10/05 13:41:19;;;;;;;4.30;1.80;;;;;;;23.62;48.29;99408.81;5137750;28;20061;-69
2022/10/05 13:44:51;;;;;;;6.75;1.90;;;;;;;23.87;49.08;99391.78;5135389;28;20082;-68
2022/10/05 13:48:07;;;;;;;2.97;2.08;;;;;;;24.03;49.11;99404.78;5135104;28;20512;-69
2022/10/05 13:51:19;;;;;;;4.80;2.30;;;;;;;24.01;49.03;99400.66;5138270;28;20519;-71
2022/10/05 13:54:21;;;;;;;3.88;2.15;;;;;;;23.91;49.36;99407.38;5123777;28;20085;-69
2022/10/05 13:57:45;;;;;;;2.45;1.92;;;;;;;23.81;48.47;99408.94;5125845;28;20137;-69
2022/10/05 14:00:45;;;;;;;3.60;2.00;;;;;;;23.75;49.33;99405.22;5143047;28;20085;-68
2022/10/05 14:03:37;;;;;;;2.30;1.98;;;;;;;23.80;49.10;99404.53;5130367;28;20084;-68
2022/10/05 14:06:29;;;;;;;5.03;2.45;;;;;;;23.45;50.43;99397.69;5138820;28;20050;-69
2022/10/05 14:09:27;;;;;;;7.57;2.15;;;;;;;23.55;49.93;99409.91;5140861;28;20077;-70
2022/10/05 14:12:21;;;;;;;3.40;2.28;;;;;;;23.47;50.16;99399.31;5156599;28;20066;-70
2022/10/05 14:15:28;;;;;;;5.32;2.13;;;;;;;23.88;50.04;99405.13;5156292;28;20128;-71
2022/10/05 14:18:23;;;;;;;3.88;2.22;;;;;;;23.44;50.05;99417.69;5153142;28;20081;-69
2022/10/05 14:21:18;;;;;;;4.20;1.95;;;;;;;23.14;51.02;99411.16;5154650;28;20449;-69
2022/10/05 14:24:23;;;;;;;6.93;2.42;;;;;;;23.71;50.92;99400.44;5153114;28;20053;-70
2022/10/05 14:27:46;;;;;;;3.10;2.20;;;;;;;23.43;51.02;99398.94;5151935;28;20192;-70
2022/10/05 14:30:38;;;;;;;7.80;2.60;;;;;;;23.64;51.09;99405.88;5151377;28;20420;-70
2022/10/05 14:33:34;;;;;;;3.75;2.10;;;;;;;23.52;50.92;99402.22;5154583;28;20125;-71
2022/10/05 14:36:55;;;;;;;4.63;2.40;;;;;;;23.70;50.81;99401.50;5149083;28;20058;-70
2022/10/05 14:39:47;;;;;;;2.90;1.88;;;;;;;23.75;50.18;99397.09;5125756;28;20236;-69
2022/10/05 14:42:44;;;;;;;3.15;2.35;;;;;;;23.65;49.90;99394.00;5153873;28;20061;-70
2022/10/05 14:46:02;;;;;;;2.40;2.00;;;;;;;23.45;50.34;99397.69;5132171;28;20082;-68
2022/10/05 14:49:20;;;;;;;3.88;2.42;;;;;;;23.56;50.29;99389.91;5151660;28;20116;-69